Time;durP1;ratioP1;P1;durP2;ratioP2;P2;SDS_P1;SDS_P2;PMS_P1;PMS_P2;Temp;Humidity;BMP_temperature;BMP_pressure;BME280_temperature;BME280_humidity;BME280_pressure;Samples;Min_cycle;Max_cycle;Signal;HPM_P1;HPM_P2
2022/01/31 00:01:08;;;;;;;2.65;1.65;;;;;;;13.58;45.49;100603.84;4966135;29;20036;-90
2022/01/31 00:03:37;;;;;;;3.72;1.90;;;;;;;13.57;45.35;100599.50;4966113;29;20015;-91
2022/01/31 00:06:04;;;;;;;3.95;1.75;;;;;;;13.58;45.43;100596.00;4950644;28;20024;-94
2022/01/31 00:08:32;;;;;;;3.70;1.88;;;;;;;13.60;45.62;100583.72;4935806;28;20085;-94
2022/01/31 00:11:13;;;;;;;3.05;1.83;;;;;;;13.59;45.34;100592.47;4967451;28;20035;-93
2022/01/31 00:14:14;;;;;;;3.70;2.00;;;;;;;13.62;45.33;100587.22;4983364;28;20011;-94
2022/01/31 00:34:19;;;;;;;4.15;1.98;;;;;;;13.64;45.46;100561.81;4887444;29;20060;-93
2022/01/31 00:36:48;;;;;;;3.15;1.88;;;;;;;13.63;45.95;100560.09;4859376;29;20035;-92
2022/01/31 00:39:20;;;;;;;2.67;1.60;;;;;;;13.66;45.77;100560.03;4864572;29;20105;-92
2022/01/31 01:06:55;;;;;;;2.78;1.60;;;;;;;13.71;45.71;100518.03;4982665;28;20058;-93
2022/01/31 01:09:51;;;;;;;3.33;1.60;;;;;;;13.71;45.56;100517.13;4966187;28;20031;-92
2022/01/31 01:12:19;;;;;;;2.70;1.67;;;;;;;13.72;45.68;100524.13;4965439;28;20660;-93
2022/01/31 01:14:49;;;;;;;2.83;1.42;;;;;;;13.73;45.85;100517.97;4964769;29;20039;-92
2022/01/31 01:17:19;;;;;;;2.72;1.50;;;;;;;13.75;45.76;100513.59;4960512;29;20042;-91
2022/01/31 01:19:46;;;;;;;2.05;1.27;;;;;;;13.74;45.96;100501.34;4981371;29;20023;-92
2022/01/31 01:22:47;;;;;;;2.67;1.50;;;;;;;13.74;45.74;100504.84;4981430;29;20027;-93
2022/01/31 01:25:16;;;;;;;2.70;1.60;;;;;;;13.75;45.90;100495.22;4965165;29;20039;-92
2022/01/31 01:27:49;;;;;;;2.53;1.35;;;;;;;13.75;45.60;100496.09;4982351;28;20011;-93
2022/01/31 01:30:20;;;;;;;2.53;1.50;;;;;;;13.76;45.56;100502.22;4979257;28;20031;-92
2022/01/31 01:35:26;;;;;;;2.08;1.20;;;;;;;13.78;45.88;100506.53;4977488;28;20020;-94
2022/01/31 01:37:53;;;;;;;3.28;1.58;;;;;;;13.78;46.03;100503.03;4963048;28;20023;-94
2022/01/31 01:40:25;;;;;;;2.97;1.48;;;;;;;13.78;45.96;100505.66;4981828;28;20019;-92
2022/01/31 01:49:42;;;;;;;2.90;1.70;;;;;;;13.80;45.93;100517.88;4922735;29;20042;-93
2022/01/31 01:52:10;;;;;;;2.88;1.70;;;;;;;13.80;45.80;100522.28;4906272;29;20072;-92
2022/01/31 01:54:42;;;;;;;3.05;1.70;;;;;;;13.80;45.69;100530.16;4906053;29;20033;-92
2022/01/31 01:57:10;;;;;;;2.53;1.50;;;;;;;13.81;45.69;100524.00;4907463;29;20033;-93
2022/01/31 02:00:01;;;;;;;2.03;1.10;;;;;;;13.80;45.79;100517.88;4890482;29;20072;-93
2022/01/31 02:02:28;;;;;;;2.42;1.40;;;;;;;13.82;45.72;100517.88;4906401;29;20044;-92
2022/01/31 02:05:14;;;;;;;2.72;1.60;;;;;;;13.81;45.79;100516.13;4905682;29;20021;-93
2022/01/31 02:07:43;;;;;;;;;;;;;;;13.82;45.84;100517.88;4906810;29;20126;-93
2022/01/31 02:10:10;;;;;;;3.13;1.60;;;;;;;13.83;45.69;100514.34;4906594;29;19926;-94
2022/01/31 02:12:47;;;;;;;2.45;1.33;;;;;;;13.82;45.96;100520.50;4925611;29;20032;-93
2022/01/31 02:15:23;;;;;;;2.70;1.35;;;;;;;13.83;45.71;100514.34;4962045;29;20028;-92
2022/01/31 02:18:14;;;;;;;2.70;1.55;;;;;;;13.82;45.70;100526.59;4946701;29;20027;-92
2022/01/31 02:21:11;;;;;;;2.17;1.40;;;;;;;13.83;45.63;100536.22;4961804;29;20046;-92
2022/01/31 02:23:51;;;;;;;2.78;1.35;;;;;;;13.85;45.72;100524.81;4957601;29;20023;-93
2022/01/31 02:26:18;;;;;;;2.20;1.33;;;;;;;13.84;45.70;100526.56;4961059;29;20441;-92
2022/01/31 02:29:08;;;;;;;2.63;1.40;;;;;;;13.85;46.00;100525.66;4960996;29;20047;-92
2022/01/31 02:31:50;;;;;;;3.13;1.55;;;;;;;13.84;45.57;100518.69;4960733;29;20047;-92
2022/01/31 02:34:19;;;;;;;2.70;1.35;;;;;;;13.85;45.96;100520.44;4959051;29;20020;-93
2022/01/31 02:36:55;;;;;;;3.78;1.70;;;;;;;13.87;45.75;100517.78;4961660;29;20039;-92
2022/01/31 02:39:26;;;;;;;3.55;1.73;;;;;;;13.86;45.76;100524.81;4961108;29;20035;-92
2022/01/31 02:42:14;;;;;;;2.63;1.42;;;;;;;13.86;45.59;100527.44;4959881;29;20008;-92
2022/01/31 02:44:50;;;;;;;2.78;1.60;;;;;;;13.87;45.76;100539.66;4960487;29;20055;-92
2022/01/31 02:47:25;;;;;;;3.28;1.88;;;;;;;13.86;45.82;100545.81;4960468;29;20043;-93
2022/01/31 02:49:59;;;;;;;2.42;1.30;;;;;;;13.87;45.88;100544.91;4970575;29;20019;-93
2022/01/31 02:52:46;;;;;;;2.03;1.23;;;;;;;13.87;45.95;100552.78;4961399;29;20080;-93
2022/01/31 02:56:00;;;;;;;2.75;1.50;;;;;;;13.87;45.76;100558.03;4960700;29;20083;-92
2022/01/31 03:01:51;;;;;;;2.70;1.60;;;;;;;13.89;45.70;100548.38;4968513;28;20050;-92
2022/01/31 03:07:44;;;;;;;2.13;1.20;;;;;;;13.89;45.80;100563.25;4980885;28;20053;-92
2022/01/31 03:13:54;;;;;;;2.90;1.40;;;;;;;13.90;45.85;100565.00;4980786;28;20062;-93
2022/01/31 03:16:23;;;;;;;2.22;1.20;;;;;;;13.90;45.84;100576.34;4976160;28;20023;-94
2022/01/31 03:18:51;;;;;;;3.63;1.90;;;;;;;13.89;45.98;100574.59;4980638;28;20019;-93
2022/01/31 03:21:21;;;;;;;1.98;1.20;;;;;;;13.91;45.97;100562.31;4961552;28;20018;-92
2022/01/31 03:23:50;;;;;;;2.75;1.48;;;;;;;13.91;45.66;100551.81;4961054;28;20043;-93
2022/01/31 03:26:17;;;;;;;2.42;1.30;;;;;;;13.90;46.09;100565.84;4948582;28;20011;-92
2022/01/31 03:28:52;;;;;;;2.15;1.23;;;;;;;13.91;45.93;100564.09;4963843;28;20149;-93
2022/01/31 03:31:27;;;;;;;2.70;1.50;;;;;;;13.92;46.22;100569.34;4963990;29;20042;-92
2022/01/31 03:33:56;;;;;;;2.92;1.63;;;;;;;13.91;46.01;100578.06;4962111;29;20019;-93
2022/01/31 03:36:47;;;;;;;3.22;1.63;;;;;;;13.93;45.70;100585.94;4978531;28;20035;-93
2022/01/31 03:39:30;;;;;;;2.85;1.27;;;;;;;13.92;46.04;100595.56;4961934;29;20043;-93
2022/01/31 03:42:02;;;;;;;2.58;1.30;;;;;;;13.92;45.99;100592.06;4972177;29;20050;-93
2022/01/31 03:44:31;;;;;;;2.80;1.38;;;;;;;13.94;45.78;100592.91;4979001;28;20015;-93
2022/01/31 03:47:01;;;;;;;2.80;1.52;;;;;;;13.94;45.82;100592.91;4959934;29;20015;-93
2022/01/31 03:49:28;;;;;;;3.25;1.55;;;;;;;13.94;46.06;100590.28;4943798;29;20035;-93
2022/01/31 03:51:56;;;;;;;2.65;1.40;;;;;;;13.95;45.84;100585.00;4960202;29;20038;-93
2022/01/31 03:54:22;;;;;;;3.08;1.55;;;;;;;13.94;46.17;100578.03;4977977;28;20019;-92
2022/01/31 03:56:53;;;;;;;2.50;1.42;;;;;;;13.93;45.97;100584.19;4977701;28;20103;-93
2022/01/31 03:59:25;;;;;;;2.60;1.38;;;;;;;13.96;45.79;100596.41;4947925;28;20015;-92
2022/01/31 04:01:52;;;;;;;3.28;1.25;;;;;;;13.96;45.77;100592.00;4962896;29;20055;-92
2022/01/31 04:04:21;;;;;;;2.95;1.38;;;;;;;13.96;46.11;100573.63;4959675;29;20047;-94
2022/01/31 04:06:48;;;;;;;2.20;1.13;;;;;;;13.98;45.87;100572.75;4960745;29;20038;-93
2022/01/31 04:09:19;;;;;;;2.63;1.40;;;;;;;13.96;46.27;100570.16;4960940;29;20033;-92
2022/01/31 04:11:56;;;;;;;2.80;1.30;;;;;;;13.97;45.91;100571.88;4964572;29;20088;-93
2022/01/31 04:14:27;;;;;;;2.50;1.38;;;;;;;13.98;46.14;100578.00;4961818;29;20031;-94
2022/01/31 04:17:05;;;;;;;2.88;1.40;;;;;;;13.98;46.03;100584.09;4964574;29;20071;-93
2022/01/31 04:19:38;;;;;;;3.08;1.40;;;;;;;13.99;45.89;100598.13;4963112;29;20008;-93
2022/01/31 04:22:09;;;;;;;2.28;1.17;;;;;;;13.99;46.02;100595.50;4960569;29;20051;-93
2022/01/31 04:24:40;;;;;;;1.73;1.10;;;;;;;14.00;45.82;100589.34;4943818;29;20019;-91
2022/01/31 04:27:16;;;;;;;2.15;1.30;;;;;;;14.00;46.13;100610.34;4957868;29;20035;-92
2022/01/31 04:29:43;;;;;;;;;;;;;;;14.00;45.67;100607.72;4945668;29;20111;-93
2022/01/31 04:32:09;;;;;;;;;;;;;;;14.00;46.06;100605.09;4961187;29;19965;-92
2022/01/31 04:34:44;;;;;;;;;;;;;;;14.02;45.69;100616.44;4961986;29;19932;-92
2022/01/31 04:37:19;;;;;;;3.10;1.33;;;;;;;14.02;45.98;100609.44;4961289;29;19899;-92
2022/01/31 04:39:53;;;;;;;2.28;1.25;;;;;;;14.02;46.10;100611.19;4960412;29;20039;-92
2022/01/31 04:42:20;;;;;;;1.83;1.02;;;;;;;14.00;46.24;100613.81;4960077;29;20116;-93
2022/01/31 04:44:48;;;;;;;2.40;1.25;;;;;;;14.02;45.85;100617.31;4959398;29;20024;-93
2022/01/31 04:47:41;;;;;;;2.20;1.20;;;;;;;14.03;45.76;100626.03;4959798;29;20059;-93
2022/01/31 04:50:14;;;;;;;2.42;1.50;;;;;;;14.03;45.96;100634.78;4958248;29;20032;-92
2022/01/31 04:52:42;;;;;;;2.30;1.13;;;;;;;14.05;45.84;100637.41;4959155;29;20043;-93
2022/01/31 04:55:10;;;;;;;1.90;1.15;;;;;;;14.05;45.99;100634.78;4958353;29;20030;-92
2022/01/31 04:57:39;;;;;;;2.53;1.30;;;;;;;14.04;45.96;100619.91;4958958;29;20067;-93
2022/01/31 05:00:09;;;;;;;1.83;1.05;;;;;;;14.05;45.97;100616.41;4943378;29;20042;-93
2022/01/31 05:16:06;;;;;;;1.85;0.98;;;;;;;14.07;46.03;100640.84;4940474;29;20141;-93
2022/01/31 05:18:33;;;;;;;1.52;0.90;;;;;;;14.07;46.08;100640.84;4922456;29;20055;-93
2022/01/31 05:21:04;;;;;;;2.15;1.30;;;;;;;14.07;46.02;100635.59;4921847;29;20020;-92
2022/01/31 05:23:30;;;;;;;1.77;1.00;;;;;;;14.09;46.14;100628.56;4921849;29;20055;-93
2022/01/31 05:26:09;;;;;;;1.98;0.98;;;;;;;14.08;46.21;100632.09;4906513;29;20032;-93
2022/01/31 05:28:36;;;;;;;2.13;1.00;;;;;;;14.07;46.20;100636.50;4921933;29;20028;-93
2022/01/31 05:31:12;;;;;;;2.67;1.30;;;;;;;14.07;45.98;100633.88;4937472;29;20140;-93
2022/01/31 05:33:38;;;;;;;1.50;0.95;;;;;;;14.09;45.89;100637.31;4923233;29;20051;-92
2022/01/31 05:36:05;;;;;;;3.70;1.70;;;;;;;14.09;46.00;100629.44;4922435;29;20112;-93
2022/01/31 05:38:37;;;;;;;2.05;0.93;;;;;;;14.10;45.83;100625.09;4921378;29;20032;-92
2022/01/31 05:54:48;;;;;;;1.48;1.00;;;;;;;14.12;46.19;100623.28;4960217;29;20027;-92
2022/01/31 05:57:16;;;;;;;1.65;1.05;;;;;;;14.11;46.08;100626.81;4942723;29;20119;-92
2022/01/31 05:59:43;;;;;;;2.55;1.10;;;;;;;14.10;46.41;100627.72;4926722;29;20063;-93
2022/01/31 06:02:10;;;;;;;1.92;1.00;;;;;;;14.13;46.02;100619.78;4957847;29;20127;-93
2022/01/31 06:04:36;;;;;;;2.33;1.23;;;;;;;14.14;46.22;100620.66;4941956;29;20048;-93
2022/01/31 06:07:04;;;;;;;1.60;1.10;;;;;;;14.14;46.03;100626.75;4941600;29;20038;-93
2022/01/31 06:09:32;;;;;;;2.67;1.45;;;;;;;14.14;45.84;100624.13;4957788;29;20079;-92
2022/01/31 06:12:01;;;;;;;2.83;0.93;;;;;;;14.15;45.98;100618.03;4943103;29;20032;-93
2022/01/31 06:14:28;;;;;;;2.53;1.27;;;;;;;14.15;46.34;100639.03;4927933;29;20051;-92
2022/01/31 06:16:55;;;;;;;1.98;1.15;;;;;;;14.14;46.23;100637.25;4943821;29;20035;-93
2022/01/31 06:19:21;;;;;;;1.52;0.95;;;;;;;14.15;46.25;100628.53;4956720;29;20087;-93
2022/01/31 06:21:48;;;;;;;2.38;1.17;;;;;;;14.15;46.22;100625.91;4926387;29;20032;-92
2022/01/31 06:24:15;;;;;;;1.73;0.90;;;;;;;14.16;46.31;100622.38;4938707;29;20043;-93
2022/01/31 06:26:42;;;;;;;1.60;0.90;;;;;;;14.16;45.88;100622.38;4922041;29;20067;-93
2022/01/31 06:29:09;;;;;;;2.45;1.20;;;;;;;14.17;46.06;100631.09;4924186;29;20032;-93
2022/01/31 06:31:36;;;;;;;2.13;1.08;;;;;;;14.17;46.24;100642.47;4950463;29;20053;-94
2022/01/31 06:34:02;;;;;;;1.70;0.90;;;;;;;14.16;46.04;100640.75;4964224;28;20059;-92
2022/01/31 06:36:32;;;;;;;2.33;1.30;;;;;;;14.18;45.96;100644.22;4964276;28;20042;-92
2022/01/31 06:39:00;;;;;;;2.03;1.00;;;;;;;14.18;46.50;100649.47;4964077;29;20018;-92
2022/01/31 06:41:29;;;;;;;2.10;1.10;;;;;;;14.18;46.39;100643.31;4964754;28;20079;-94
2022/01/31 06:43:57;;;;;;;1.45;0.93;;;;;;;14.19;46.09;100659.06;4980780;28;20062;-91
2022/01/31 06:46:34;;;;;;;2.20;1.23;;;;;;;14.19;46.20;100666.09;4980084;28;20019;-91
2022/01/31 06:48:59;;;;;;;2.40;1.10;;;;;;;14.20;46.38;100658.19;4964351;29;20023;-94
2022/01/31 06:51:28;;;;;;;1.73;1.08;;;;;;;14.18;46.38;100644.22;4961643;29;20031;-93
2022/01/31 06:54:02;;;;;;;2.58;1.42;;;;;;;14.21;46.19;100653.81;4960688;29;20039;-94
2022/01/31 06:56:33;;;;;;;2.55;1.27;;;;;;;14.20;46.19;100658.19;4929272;29;20031;-94
2022/01/31 06:59:00;;;;;;;2.20;1.08;;;;;;;14.21;46.17;100667.81;4960158;29;20042;-93
2022/01/31 07:01:38;;;;;;;2.00;1.17;;;;;;;14.21;45.99;100664.31;4959511;29;20023;-93
2022/01/31 07:04:04;;;;;;;2.25;1.20;;;;;;;14.21;45.99;100662.56;4939744;29;20071;-93
2022/01/31 07:06:31;;;;;;;2.25;1.08;;;;;;;14.22;46.12;100653.78;4955329;29;20039;-92
2022/01/31 07:08:59;;;;;;;2.15;1.30;;;;;;;14.22;46.02;100645.91;4951670;29;20054;-93
2022/01/31 07:11:28;;;;;;;1.95;1.13;;;;;;;14.22;46.25;100645.91;4951494;29;20103;-90
2022/01/31 07:14:08;;;;;;;2.38;1.25;;;;;;;14.21;46.10;100651.19;4952729;29;20039;-92
2022/01/31 07:16:36;;;;;;;1.83;1.15;;;;;;;14.22;46.29;100659.03;4950638;29;20099;-92
2022/01/31 07:19:08;;;;;;;2.58;1.30;;;;;;;14.22;46.25;100656.41;4948137;29;20035;-91
2022/01/31 07:21:39;;;;;;;2.10;1.15;;;;;;;14.22;46.18;100651.16;4950901;29;20043;-91
2022/01/31 07:27:07;;;;;;;1.58;1.10;;;;;;;14.23;46.21;100668.66;4919842;29;20049;-95
2022/01/31 07:29:35;;;;;;;1.95;1.10;;;;;;;14.25;46.17;100670.38;4967789;29;20044;-94
2022/01/31 07:32:11;;;;;;;1.95;0.93;;;;;;;14.23;46.34;100673.91;4958540;29;20022;-94
2022/01/31 07:34:55;;;;;;;1.98;1.10;;;;;;;14.25;46.44;100683.50;4958252;29;20040;-95
2022/01/31 07:37:27;;;;;;;1.92;1.10;;;;;;;14.26;46.10;100685.25;4943021;29;20058;-94
2022/01/31 07:39:54;;;;;;;1.80;1.00;;;;;;;14.28;46.29;100670.34;4936480;29;20067;-93
2022/01/31 07:42:21;;;;;;;1.40;0.90;;;;;;;14.26;46.19;100664.25;4952477;29;20035;-93
2022/01/31 07:44:53;;;;;;;1.88;1.02;;;;;;;14.27;46.41;100671.22;4954849;29;20525;-92
2022/01/31 07:47:18;;;;;;;1.85;1.05;;;;;;;14.28;46.09;100675.59;4957345;29;20046;-92
2022/01/31 07:49:44;;;;;;;2.47;1.13;;;;;;;14.28;46.47;100665.09;4956918;29;20027;-92
2022/01/31 07:52:11;;;;;;;1.58;1.00;;;;;;;14.29;46.12;100682.59;4957434;29;20024;-93
2022/01/31 07:54:39;;;;;;;2.20;0.95;;;;;;;14.28;45.75;100665.09;4958012;29;20057;-91
2022/01/31 07:57:05;;;;;;;4.03;1.20;;;;;;;14.27;45.91;100664.22;4955627;29;20129;-91
2022/01/31 07:59:31;;;;;;;1.38;0.90;;;;;;;14.29;46.21;100666.84;4956215;29;20031;-94
2022/01/31 08:01:58;;;;;;;1.42;0.77;;;;;;;14.30;46.29;100668.56;4944256;29;20051;-94
2022/01/31 08:04:34;;;;;;;2.10;1.00;;;;;;;14.29;46.13;100666.84;4970810;29;20043;-95
2022/01/31 08:06:59;;;;;;;1.70;1.00;;;;;;;14.30;46.18;100668.56;4958434;29;20058;-94
2022/01/31 08:09:47;;;;;;;1.77;1.00;;;;;;;14.31;46.07;100662.41;4944000;29;20047;-95
2022/01/31 08:12:24;;;;;;;1.38;0.88;;;;;;;14.29;46.40;100678.19;4963033;29;20039;-95
2022/01/31 08:15:01;;;;;;;1.20;0.75;;;;;;;14.31;46.34;100675.56;4966193;29;20027;-94
2022/01/31 08:17:45;;;;;;;;;;;;;;;14.31;46.23;100680.81;4964430;29;20116;-94
2022/01/31 08:20:17;;;;;;;1.10;0.88;;;;;;;14.31;46.04;100671.19;4961867;29;19918;-95
2022/01/31 08:22:53;;;;;;;2.13;0.98;;;;;;;14.32;46.19;100679.91;4963895;29;20026;-94
2022/01/31 08:25:19;;;;;;;1.70;0.77;;;;;;;14.31;46.39;100670.28;4965735;29;20023;-95
2022/01/31 08:28:01;;;;;;;1.40;0.90;;;;;;;14.32;46.29;100670.28;4982066;28;20049;-95
2022/01/31 08:31:02;;;;;;;1.75;0.90;;;;;;;14.31;45.97;100680.81;4982632;28;20019;-94
2022/01/31 08:33:42;;;;;;;1.95;1.00;;;;;;;14.33;46.05;100679.88;4982057;28;20031;-95
2022/01/31 08:40:07;;;;;;;1.80;1.05;;;;;;;14.33;46.02;100702.66;4959825;29;20108;-94
2022/01/31 08:42:36;;;;;;;1.42;0.80;;;;;;;14.36;45.99;100694.75;4961613;29;20031;-94
2022/01/31 08:45:05;;;;;;;1.67;0.95;;;;;;;14.35;46.21;100687.75;4961221;29;20028;-94
2022/01/31 08:47:30;;;;;;;1.50;0.93;;;;;;;14.34;46.20;100691.28;4961750;29;20042;-94
2022/01/31 08:49:56;;;;;;;1.90;1.08;;;;;;;14.36;46.00;100689.50;4946775;29;20035;-93
2022/01/31 08:52:28;;;;;;;1.70;0.98;;;;;;;14.34;46.28;100691.28;4946267;29;20108;-94
2022/01/31 09:08:22;;;;;;;2.22;1.02;;;;;;;14.36;46.17;100674.63;4963736;28;20052;-95
2022/01/31 09:11:11;;;;;;;2.05;0.90;;;;;;;14.37;46.36;100672.84;4961581;28;20036;-94
2022/01/31 09:13:45;;;;;;;2.03;0.90;;;;;;;14.37;46.37;100678.09;4961859;28;20027;-95
2022/01/31 09:16:44;;;;;;;2.17;1.20;;;;;;;14.38;46.07;100669.31;4958832;28;20019;-96
2022/01/31 09:19:10;;;;;;;2.25;1.20;;;;;;;14.38;46.36;100661.44;4950525;28;20015;-95
2022/01/31 09:21:37;;;;;;;2.13;1.13;;;;;;;14.41;46.27;100661.41;4961199;28;20374;-95
2022/01/31 09:24:17;;;;;;;1.27;0.90;;;;;;;14.41;46.18;100660.53;4959969;28;20046;-94
2022/01/31 09:26:44;;;;;;;1.98;1.23;;;;;;;14.41;46.16;100656.16;4962495;28;20022;-96
2022/01/31 09:29:28;;;;;;;1.25;0.70;;;;;;;14.41;46.24;100660.53;4960763;28;20020;-94
2022/01/31 09:34:44;;;;;;;1.45;0.90;;;;;;;14.43;46.46;100658.78;4962917;28;20026;-94
2022/01/31 09:37:13;;;;;;;1.70;0.90;;;;;;;14.43;46.15;100664.03;4962027;28;20020;-95
2022/01/31 09:39:47;;;;;;;1.50;0.70;;;;;;;14.43;46.21;100657.00;4945789;28;20039;-95
2022/01/31 09:43:00;;;;;;;1.33;0.75;;;;;;;14.43;46.31;100659.63;4962508;28;20054;-96
2022/01/31 09:45:55;;;;;;;2.35;1.10;;;;;;;14.43;46.33;100656.16;4953192;28;20039;-95
2022/01/31 09:48:36;;;;;;;1.77;0.85;;;;;;;14.45;46.24;100644.72;4961881;28;20075;-95
2022/01/31 09:51:21;;;;;;;;;;;;;;;14.44;46.16;100629.84;4960334;29;20095;-95
2022/01/31 09:54:15;;;;;;;1.73;0.80;;;;;;;14.46;45.93;100622.81;4957157;29;19911;-95
2022/01/31 09:56:45;;;;;;;1.42;0.80;;;;;;;14.47;46.05;100615.78;4956662;29;20046;-94
2022/01/31 09:59:15;;;;;;;1.90;0.90;;;;;;;14.47;46.19;100613.16;4959686;28;20458;-94
2022/01/31 10:01:58;;;;;;;2.03;0.90;;;;;;;14.47;46.04;100603.53;4962275;28;20047;-95
2022/01/31 10:04:36;;;;;;;1.63;0.80;;;;;;;14.48;46.25;100615.78;4962049;28;20055;-96
2022/01/31 10:07:06;;;;;;;2.40;0.90;;;;;;;14.48;46.72;100626.28;4958960;28;20039;-94
2022/01/31 10:09:38;;;;;;;1.83;0.95;;;;;;;14.49;46.29;100611.41;4943516;29;20044;-94
2022/01/31 10:18:27;;;;;;;1.27;0.90;;;;;;;14.51;46.34;100593.84;4865746;29;20061;-94
2022/01/31 10:20:59;;;;;;;1.50;0.90;;;;;;;14.52;46.19;100589.47;4877900;29;20025;-94
2022/01/31 10:23:45;;;;;;;1.75;0.90;;;;;;;14.50;46.07;100587.72;4901270;29;20033;-94
2022/01/31 10:34:30;;;;;;;1.70;0.75;;;;;;;14.55;46.13;100584.16;5335175;23;20043;-95
2022/01/31 10:37:09;;;;;;;1.80;0.75;;;;;;;14.55;46.23;100584.16;4996652;28;20031;-95
2022/01/31 10:59:34;;;;;;;1.10;0.70;;;;;;;14.62;46.35;100554.25;4914142;29;20106;-93
2022/01/31 11:02:29;;;;;;;1.27;0.75;;;;;;;14.63;46.29;100566.53;4917404;29;20566;-94
2022/01/31 11:05:01;;;;;;;1.85;0.85;;;;;;;14.62;46.30;100549.88;4917411;29;20157;-94
2022/01/31 11:07:31;;;;;;;1.67;0.95;;;;;;;14.62;46.49;100539.38;4918656;29;20036;-93
2022/01/31 11:10:00;;;;;;;2.38;1.08;;;;;;;14.62;46.74;100533.25;4982551;28;20098;-93
2022/01/31 11:12:30;;;;;;;1.50;0.77;;;;;;;14.63;46.56;100545.50;4960775;28;20043;-94
2022/01/31 11:14:59;;;;;;;2.13;0.90;;;;;;;14.64;46.39;100536.72;4978703;28;20023;-94
2022/01/31 11:17:26;;;;;;;1.85;1.00;;;;;;;14.65;46.29;100530.59;4978531;28;20041;-94
2022/01/31 11:19:57;;;;;;;2.85;0.98;;;;;;;14.65;46.33;100527.94;4978438;28;20090;-93
2022/01/31 11:22:32;;;;;;;3.58;1.15;;;;;;;14.67;46.47;100534.03;4998447;28;20066;-94
2022/01/31 11:31:44;;;;;;;1.90;1.10;;;;;;;14.67;46.47;100523.53;4926816;28;20082;-92
2022/01/31 11:34:10;;;;;;;2.63;1.30;;;;;;;14.69;46.76;100513.00;4973837;28;20090;-93
2022/01/31 11:36:40;;;;;;;1.30;1.00;;;;;;;14.71;46.53;100511.19;4968426;28;20031;-92
2022/01/31 11:39:09;;;;;;;2.50;1.10;;;;;;;14.69;46.23;100511.25;4974443;28;20034;-92
2022/01/31 11:41:46;;;;;;;1.63;0.88;;;;;;;14.70;46.52;100509.47;4970697;28;20038;-93
2022/01/31 11:44:38;;;;;;;2.20;0.80;;;;;;;14.71;46.86;100500.69;4974673;28;20030;-92
2022/01/31 11:47:07;;;;;;;2.80;1.08;;;;;;;14.71;46.58;100506.81;4976377;28;20063;-93
2022/01/31 11:49:52;;;;;;;2.45;1.02;;;;;;;14.74;46.61;100506.81;4980283;28;20094;-91
2022/01/31 11:52:19;;;;;;;2.10;1.00;;;;;;;14.73;46.30;100484.00;4956001;28;20085;-89
2022/01/31 11:54:56;;;;;;;2.92;1.30;;;;;;;14.75;46.53;100482.28;4968912;28;20027;-92
2022/01/31 11:57:29;;;;;;;2.00;1.00;;;;;;;14.76;46.54;100488.38;4988170;28;20057;-92
2022/01/31 12:00:26;;;;;;;3.35;1.20;;;;;;;14.76;46.29;100478.75;4971560;28;20026;-93
2022/01/31 12:02:56;;;;;;;3.05;1.02;;;;;;;14.75;46.46;100471.75;4988091;28;20049;-93
2022/01/31 12:05:36;;;;;;;3.08;1.40;;;;;;;14.77;46.57;100475.22;4959663;28;20031;-94
2022/01/31 12:08:16;;;;;;;2.80;1.20;;;;;;;14.78;46.57;100470.84;4972999;28;20065;-93
2022/01/31 12:10:53;;;;;;;2.40;1.20;;;;;;;14.79;46.44;100469.06;4991017;28;20026;-92
2022/01/31 12:13:47;;;;;;;3.20;1.25;;;;;;;14.79;46.43;100455.91;4973981;28;20041;-92
2022/01/31 12:22:34;;;;;;;;;;;;;;;14.81;46.43;100462.03;4986335;28;20042;-93
2022/01/31 12:25:31;;;;;;;3.60;1.40;;;;;;;14.82;46.35;100455.88;4990892;28;19916;-93
2022/01/31 12:28:17;;;;;;;3.20;1.50;;;;;;;14.81;46.40;100448.91;4973847;28;20082;-94
2022/01/31 12:30:44;;;;;;;2.75;1.48;;;;;;;14.82;46.51;100446.22;4978680;28;20031;-93
2022/01/31 12:33:41;;;;;;;3.10;1.48;;;;;;;14.83;46.47;100441.84;4978995;28;20058;-93
2022/01/31 12:36:07;;;;;;;3.70;1.58;;;;;;;14.85;46.47;100430.41;4978502;28;20047;-93
2022/01/31 12:38:33;;;;;;;3.55;1.40;;;;;;;14.87;46.52;100433.00;4978599;28;20035;-94
2022/01/31 12:41:05;;;;;;;4.00;1.35;;;;;;;14.86;46.48;100421.63;4980139;28;20026;-93
2022/01/31 12:43:56;;;;;;;3.58;1.52;;;;;;;14.87;46.52;100422.50;4979301;28;20109;-93
2022/01/31 12:46:18;;;;;;;3.63;1.70;;;;;;;14.89;46.43;100425.94;4997124;28;20034;-93
2022/01/31 12:49:08;;;;;;;2.67;1.40;;;;;;;14.88;46.38;100413.72;4964250;28;20035;-94
2022/01/31 12:51:55;;;;;;;3.15;1.58;;;;;;;14.89;46.44;100410.19;4996973;28;20031;-93
2022/01/31 12:54:23;;;;;;;4.97;1.65;;;;;;;14.89;46.61;100399.66;4978522;28;20088;-92
2022/01/31 12:56:52;;;;;;;4.32;1.45;;;;;;;14.91;46.52;100403.13;4995700;28;20050;-93
2022/01/31 12:59:24;;;;;;;2.83;1.45;;;;;;;14.91;46.59;100403.13;4980221;28;20086;-93
2022/01/31 13:01:51;;;;;;;4.22;2.17;;;;;;;14.91;46.94;100400.50;4998350;28;20053;-93
2022/01/31 13:04:25;;;;;;;3.90;1.60;;;;;;;14.93;46.67;100406.59;4963433;28;20027;-93
2022/01/31 13:07:01;;;;;;;3.85;2.00;;;;;;;14.93;46.41;100398.72;4963542;28;20058;-92
2022/01/31 13:09:32;;;;;;;3.50;1.35;;;;;;;14.93;46.47;100398.72;4979558;28;20465;-93
2022/01/31 13:12:04;;;;;;;2.03;1.20;;;;;;;14.94;46.85;100392.56;4979397;28;20436;-93
2022/01/31 13:14:36;;;;;;;3.55;1.50;;;;;;;14.94;46.47;100381.16;4978545;28;20015;-93
2022/01/31 13:17:16;;;;;;;3.03;1.60;;;;;;;14.96;46.96;100396.00;4995310;28;20055;-93
2022/01/31 13:19:45;;;;;;;2.50;1.38;;;;;;;14.94;46.81;100403.06;4977793;28;20031;-92
2022/01/31 13:22:17;;;;;;;2.83;1.25;;;;;;;14.96;46.92;100390.75;4979344;28;20023;-94
2022/01/31 13:24:48;;;;;;;2.70;1.30;;;;;;;14.96;46.65;100374.13;4979742;28;20026;-93
2022/01/31 13:27:28;;;;;;;2.45;1.30;;;;;;;14.96;46.83;100369.72;4980275;28;20062;-94
2022/01/31 13:29:55;;;;;;;3.45;1.38;;;;;;;14.97;46.65;100360.09;4980077;28;20019;-93
2022/01/31 13:32:40;;;;;;;3.55;1.33;;;;;;;14.98;46.59;100352.19;4983917;28;20373;-92
2022/01/31 13:35:10;;;;;;;3.63;1.58;;;;;;;14.98;46.83;100362.69;4981118;29;20047;-92
2022/01/31 13:38:06;;;;;;;3.33;1.42;;;;;;;15.00;46.53;100337.22;4980068;28;20071;-93
2022/01/31 13:40:45;;;;;;;3.05;1.35;;;;;;;15.01;46.57;100362.63;4980419;28;20058;-92
2022/01/31 13:43:17;;;;;;;4.45;1.40;;;;;;;15.01;46.96;100335.47;4978668;28;20016;-93
2022/01/31 13:45:54;;;;;;;2.35;1.13;;;;;;;15.01;46.91;100336.31;4978091;28;20027;-93
2022/01/31 13:48:43;;;;;;;4.88;2.03;;;;;;;15.04;46.71;100330.16;4977222;28;20007;-93
2022/01/31 13:51:24;;;;;;;2.22;1.20;;;;;;;15.05;47.25;100336.28;4967848;29;20099;-93
2022/01/31 13:53:53;;;;;;;4.03;1.60;;;;;;;15.03;46.91;100334.53;4981096;28;20023;-94
2022/01/31 13:56:19;;;;;;;3.00;1.58;;;;;;;15.06;46.83;100316.97;4980105;28;20027;-93
2022/01/31 13:58:56;;;;;;;2.63;0.90;;;;;;;15.06;46.88;100324.84;4980597;28;20042;-93
2022/01/31 14:01:23;;;;;;;3.28;1.10;;;;;;;15.05;46.83;100316.09;4979986;29;20011;-93
2022/01/31 14:03:51;;;;;;;1.80;1.00;;;;;;;15.08;47.06;100323.03;4979881;28;20087;-93
2022/01/31 14:06:20;;;;;;;3.30;1.42;;;;;;;15.08;46.73;100330.94;4981153;28;20016;-92
2022/01/31 14:08:49;;;;;;;3.08;1.00;;;;;;;15.08;46.79;100315.16;4981186;28;20027;-94
2022/01/31 14:11:19;;;;;;;3.03;1.17;;;;;;;15.09;46.96;100306.38;4980201;28;20004;-93
2022/01/31 14:14:15;;;;;;;1.98;0.85;;;;;;;15.10;46.95;100310.72;4979582;28;20043;-94
2022/01/31 14:16:44;;;;;;;1.83;0.95;;;;;;;15.12;46.94;100316.84;4981306;28;20015;-96
2022/01/31 14:19:13;;;;;;;2.75;1.30;;;;;;;15.12;46.93;100311.56;4980353;28;20039;-93
2022/01/31 14:21:44;;;;;;;2.85;1.17;;;;;;;15.12;46.98;100303.69;4976988;28;20035;-92
2022/01/31 14:24:13;;;;;;;2.50;1.02;;;;;;;15.13;47.04;100302.78;4974897;29;20019;-92
2022/01/31 14:26:55;;;;;;;1.80;0.90;;;;;;;15.11;46.89;100280.94;4976444;29;20063;-93
2022/01/31 14:29:24;;;;;;;1.92;0.85;;;;;;;15.12;47.13;100280.88;4976867;28;20020;-92
2022/01/31 14:31:54;;;;;;;2.13;0.90;;;;;;;15.14;46.97;100283.47;4976036;29;20023;-93
2022/01/31 14:34:22;;;;;;;2.88;1.02;;;;;;;15.14;46.90;100270.34;4975885;29;20091;-93
2022/01/31 14:36:53;;;;;;;2.25;1.30;;;;;;;15.15;46.84;100286.06;4977324;29;20030;-92